createdAt,value
2022-08-20T00:06:01.535Z,91.32
2022-08-20T00:13:03.550Z,92.79
2022-08-20T00:20:05.817Z,94.34
2022-08-20T00:27:07.290Z,94.38
2022-08-20T00:34:08.808Z,95.06
2022-08-20T00:41:12.484Z,95.44
2022-08-20T00:48:13.935Z,97.37
2022-08-20T00:55:15.415Z,98.43
2022-08-20T01:02:17.632Z,98.92
2022-08-20T01:09:50.299Z,98.64
2022-08-20T01:16:40.791Z,99.61
2022-08-20T01:23:51.355Z,100.00
2022-08-20T01:30:52.874Z,100.00
2022-08-20T01:37:54.563Z,100.00
2022-08-20T01:44:56.186Z,100.00
2022-08-20T01:51:58.989Z,99.86
2022-08-20T01:59:01.194Z,98.98
2022-08-20T02:06:03.221Z,98.72
2022-08-20T02:13:05.506Z,96.95
2022-08-20T02:20:07.156Z,96.81
2022-08-20T02:27:08.605Z,96.89
2022-08-20T02:34:14.762Z,97.72
2022-08-20T02:41:24.295Z,98.24
2022-08-20T02:48:25.941Z,99.25
2022-08-20T02:55:28.454Z,99.35
2022-08-20T03:02:30.248Z,99.23
2022-08-20T03:09:31.857Z,100.00
2022-08-20T03:16:33.273Z,100.00
2022-08-20T03:23:35.020Z,100.00
2022-08-20T03:30:37.014Z,100.00
2022-08-20T03:37:39.776Z,100.00
2022-08-20T03:44:48.767Z,100.00
2022-08-20T03:52:01.334Z,100.00
2022-08-20T03:59:02.793Z,100.00
2022-08-20T04:06:04.279Z,100.00
2022-08-20T04:13:06.908Z,100.00
2022-08-20T04:20:10.783Z,100.00
2022-08-20T04:27:12.350Z,100.00
2022-08-20T04:34:14.213Z,100.00
2022-08-20T04:41:23.011Z,100.00
2022-08-20T04:48:25.389Z,100.00
2022-08-20T04:55:26.809Z,100.00
2022-08-20T05:02:28.318Z,100.00
2022-08-20T05:09:32.376Z,100.00
2022-08-20T05:16:45.447Z,100.00
2022-08-20T05:23:47.004Z,100.00
2022-08-20T05:30:48.843Z,100.00
2022-08-20T05:37:51.284Z,100.00
2022-08-20T05:44:52.918Z,98.77
2022-08-20T05:51:54.457Z,98.44
2022-08-20T05:58:56.113Z,97.94
2022-08-20T06:05:57.866Z,96.75
2022-08-20T06:12:59.354Z,96.26
2022-08-20T06:20:01.606Z,95.43
2022-08-20T06:27:03.651Z,94.85
2022-08-20T06:34:05.253Z,95.32
2022-08-20T06:41:08.000Z,95.06
2022-08-20T06:48:10.171Z,95.74
2022-08-20T06:55:17.334Z,95.85
2022-08-20T07:02:18.790Z,95.36
2022-08-20T07:09:21.298Z,95.65
2022-08-20T07:16:22.749Z,95.24
2022-08-20T07:23:24.661Z,95.67
2022-08-20T07:30:56.210Z,95.36
2022-08-20T07:37:59.071Z,94.84
2022-08-20T07:45:00.539Z,94.78
2022-08-20T07:52:02.014Z,95.19
2022-08-20T07:59:03.457Z,94.85
2022-08-20T08:06:05.109Z,94.51
2022-08-20T08:13:07.263Z,94.87
2022-08-20T08:20:09.003Z,95.07
2022-08-20T08:27:10.554Z,94.76
2022-08-20T08:34:12.887Z,94.68
2022-08-20T08:41:14.358Z,94.72
2022-08-20T08:48:18.571Z,94.26
2022-08-20T08:55:20.797Z,94.32
2022-08-20T09:02:23.190Z,94.24
2022-08-20T09:09:28.944Z,93.89
2022-08-20T09:16:52.654Z,93.46
2022-08-20T09:23:51.829Z,92.13
2022-08-20T09:30:53.278Z,91.71
2022-08-20T09:37:55.970Z,90.13
2022-08-20T09:44:57.799Z,89.23
2022-08-20T09:51:59.539Z,88.35
2022-08-20T09:59:02.898Z,88.41
2022-08-20T10:06:04.582Z,86.86
2022-08-20T10:13:06.069Z,86.80
2022-08-20T10:20:08.768Z,86.88
2022-08-20T10:27:10.225Z,84.67
2022-08-20T10:34:11.762Z,83.66
2022-08-20T10:41:13.292Z,80.14
2022-08-20T10:48:19.449Z,77.31
2022-08-20T10:55:22.840Z,76.09
2022-08-20T11:02:24.483Z,72.07
2022-08-20T11:09:26.015Z,70.58
2022-08-20T11:16:27.478Z,69.85
2022-08-20T11:23:28.922Z,70.96
2022-08-20T11:30:33.136Z,70.69
2022-08-20T11:37:34.586Z,67.98
2022-08-20T11:44:36.065Z,63.10
2022-08-20T11:51:49.232Z,63.67
2022-08-20T11:58:51.720Z,64.25
2022-08-20T12:05:53.250Z,63.34
2022-08-20T12:12:55.189Z,62.33
2022-08-20T12:19:57.298Z,61.66
2022-08-20T12:27:18.307Z,63.59
2022-08-20T12:40:32.156Z,64.74
2022-08-20T12:47:39.382Z,64.07
2022-08-20T12:54:41.038Z,64.39
2022-08-20T13:01:42.768Z,64.59
2022-08-20T13:08:44.456Z,63.33
2022-08-20T13:15:46.144Z,63.70
2022-08-20T13:22:47.783Z,64.58
2022-08-20T13:29:53.990Z,65.72
2022-08-20T13:36:58.059Z,67.53
2022-08-20T13:43:59.666Z,69.02
2022-08-20T13:51:01.380Z,72.02
2022-08-20T13:58:08.717Z,73.86
2022-08-20T14:05:10.521Z,76.62
2022-08-20T14:12:13.909Z,78.98
2022-08-20T14:19:15.587Z,80.31
2022-08-20T14:26:17.190Z,83.37
2022-08-20T14:33:18.808Z,83.46
2022-08-20T14:40:21.530Z,84.84
2022-08-20T14:47:28.001Z,86.47
2022-08-20T14:54:29.604Z,85.37
2022-08-20T15:01:31.290Z,85.24
2022-08-20T15:08:33.005Z,85.98
2022-08-20T15:15:35.277Z,86.12
2022-08-20T15:22:37.380Z,86.92
2022-08-20T15:29:39.574Z,87.79
2022-08-20T15:36:41.500Z,88.51
2022-08-20T15:43:43.271Z,89.22
2022-08-20T15:50:47.973Z,89.25
2022-08-20T15:58:10.843Z,89.34
2022-08-20T16:05:20.146Z,90.09
2022-08-20T16:12:28.490Z,91.45
2022-08-20T16:19:40.114Z,91.79
2022-08-20T16:26:46.227Z,92.98
2022-08-20T16:34:32.255Z,92.42
2022-08-20T16:41:41.107Z,92.81
2022-08-20T16:48:48.517Z,92.74
2022-08-20T16:55:50.173Z,93.19
2022-08-20T17:02:54.385Z,93.71
2022-08-20T17:10:09.034Z,95.31
2022-08-20T17:17:31.217Z,95.47
2022-08-20T17:24:32.837Z,94.05
2022-08-20T17:31:38.449Z,94.87
2022-08-20T17:38:47.992Z,95.22
2022-08-20T17:45:49.629Z,95.59
2022-08-20T17:52:54.359Z,94.86
2022-08-20T18:00:02.727Z,94.25
2022-08-20T18:07:32.302Z,95.32
2022-08-20T18:15:00.035Z,95.12
2022-08-20T18:22:12.183Z,93.57
2022-08-20T18:29:16.330Z,94.32
2022-08-20T18:36:17.807Z,93.61
2022-08-20T18:43:27.888Z,91.58
2022-08-20T18:50:38.590Z,90.10
2022-08-20T18:57:53.353Z,91.47
2022-08-20T19:05:02.130Z,91.72
2022-08-20T19:12:07.305Z,90.51
2022-08-20T19:19:16.847Z,90.82
2022-08-20T19:26:25.235Z,90.14
2022-08-20T19:33:29.761Z,90.56
2022-08-20T19:40:38.862Z,90.83
2022-08-20T19:47:41.759Z,91.43
2022-08-20T19:54:53.947Z,90.09
2022-08-20T20:02:01.437Z,89.88
2022-08-20T20:09:13.523Z,89.96
2022-08-20T20:16:16.849Z,89.46
2022-08-20T20:23:46.982Z,88.99
2022-08-20T20:30:48.836Z,89.34
2022-08-20T20:38:06.419Z,90.09
2022-08-20T20:45:48.708Z,91.84
2022-08-20T20:52:51.702Z,92.01
2022-08-20T20:59:53.385Z,91.04
2022-08-20T21:06:56.719Z,90.48
2022-08-20T21:13:58.354Z,90.67
2022-08-20T21:20:59.942Z,89.92
2022-08-20T21:28:01.704Z,90.05
2022-08-20T21:35:03.831Z,90.63
2022-08-20T21:42:16.070Z,90.40
2022-08-20T21:49:28.486Z,90.42
2022-08-20T21:56:30.178Z,89.63
2022-08-20T22:03:37.219Z,89.64
2022-08-20T22:10:40.592Z,89.95
2022-08-20T22:17:42.375Z,89.37
2022-08-20T22:24:45.584Z,89.33
2022-08-20T22:31:47.487Z,89.35
2022-08-20T22:38:54.652Z,89.22
2022-08-20T22:45:58.230Z,89.39
2022-08-20T22:53:00.680Z,88.90
2022-08-20T23:00:02.489Z,88.75
2022-08-20T23:07:04.463Z,88.81
2022-08-20T23:14:06.083Z,88.50
2022-08-20T23:21:07.702Z,88.42
2022-08-20T23:28:09.947Z,88.61
2022-08-20T23:35:12.128Z,88.37
2022-08-20T23:42:14.527Z,87.69
2022-08-20T23:49:16.223Z,87.31
2022-08-20T23:56:17.939Z,86.86
